Terminal Aerodrome Forecast
Issued by NWS Bismarck, ND

Home | Current Version | Previous Version | Text Only | Print | Product List | Glossary Off
Versions: 1 2 3 4 5 6 7 8 9 10 11 12 13

713
FTUS43 KBIS 201120
TAFBIS
TAF
KBIS 201120Z 2012/2112 11005KT P6SM SCT200
     FM202000 14012KT P6SM SCT070 BKN250
     FM211100 15007KT P6SM BKN045=

USA.gov is the U.S. government's official web portal to all federal, state and local government web resources and services.